Hyderabad Weather



Hyderabad's Current Weather

Temprature 27.086o clear sky

clear sky

Rain: 0 %

Min Temprature27.086o
Max Temprature27.086o
Humidity48
Wind Speed5.25 m/h
Sun Rise05:58:46
Sun Set18:51:26
Current Time: 21-Apr-2019 05:50:16
Lat/Lon: 25.38, 68.38




Hyderabad's Geo Location



Hyderabad's Weather Forecast

Time Overall Temp Min Temp Max Temp Humidity Wind Speed Rain
21-Apr-2019 (Sun)
08:00:00 clear sky 29.140 29.139 29.140 40 4.47 m/h 0 %
11:00:00 clear sky 36.250 36.250 36.250 21 5.33 m/h 0 %
14:00:00 clear sky 39.750 39.750 39.750 16 6.66 m/h 0 %
17:00:00 clear sky 36.850 36.850 36.850 23 9.97 m/h 0 %
20:00:00 clear sky 31.750 31.750 31.750 34 9.3 m/h 0 %
23:00:00 clear sky 29.890 29.890 29.890 42 7.37 m/h 0 %
22-Apr-2019 (Mon)
02:00:00 clear sky 28.670 28.670 28.670 47 6.32 m/h 0 %
05:00:00 clear sky 27.474 27.474 27.474 54 4.04 m/h 0 %
08:00:00 clear sky 29.746 29.746 29.746 42 3.5 m/h 0 %
11:00:00 clear sky 37.420 37.420 37.420 17 4.92 m/h 0 %
14:00:00 clear sky 41.015 41.015 41.015 11 6.95 m/h 0 %
17:00:00 clear sky 38.431 38.431 38.431 20 8.73 m/h 0 %
20:00:00 clear sky 32.350 32.350 32.350 38 8.55 m/h 0 %
23:00:00 clear sky 30.096 30.096 30.096 45 7.63 m/h 0 %
23-Apr-2019 (Tue)
02:00:00 clear sky 28.877 28.877 28.877 48 7.86 m/h 0 %
05:00:00 clear sky 28.226 28.226 28.226 49 5.71 m/h 0 %
08:00:00 clear sky 31.247 31.247 31.247 34 5.17 m/h 0 %
11:00:00 clear sky 39.050 39.050 39.050 13 5.86 m/h 0 %
14:00:00 clear sky 41.550 41.550 41.550 10 6.57 m/h 0 %
17:00:00 clear sky 38.750 38.750 38.750 18 9.3 m/h 0 %
20:00:00 clear sky 31.928 31.928 31.928 37 9.74 m/h 0 %
23:00:00 clear sky 29.450 29.450 29.450 46 10.07 m/h 0 %
24-Apr-2019 (Wed)
02:00:00 clear sky 28.282 28.282 28.282 50 9.99 m/h 0 %
05:00:00 clear sky 27.364 27.364 27.364 55 9.04 m/h 0 %
08:00:00 clear sky 28.650 28.650 28.650 51 9.54 m/h 0 %
11:00:00 clear sky 34.308 34.308 34.308 36 10.94 m/h 0 %
14:00:00 clear sky 37.650 37.650 37.650 28 11.17 m/h 0 %
17:00:00 clear sky 35.750 35.750 35.750 31 11.26 m/h 0 %
20:00:00 clear sky 31.155 31.155 31.155 40 11.6 m/h 0 %
23:00:00 clear sky 29.745 29.745 29.745 45 11.24 m/h 0 %
25-Apr-2019 (Thu)
02:00:00 clear sky 28.550 28.550 28.550 52 9.33 m/h 0 %
05:00:00 clear sky 27.522 27.522 27.522 60 6.74 m/h 0 %
08:00:00 clear sky 29.120 29.120 29.120 52 5.67 m/h 0 %
11:00:00 clear sky 36.790 36.790 36.790 22 6.22 m/h 0 %
14:00:00 clear sky 40.450 40.450 40.450 11 5.63 m/h 0 %
17:00:00 clear sky 39.911 39.911 39.911 13 7.73 m/h 0 %
20:00:00 clear sky 34.125 34.125 34.125 21 9.52 m/h 0 %
23:00:00 clear sky 32.343 32.343 32.343 24 9.09 m/h 0 %
26-Apr-2019 (Fri)
02:00:00 clear sky 31.132 31.132 31.132 26 8.76 m/h 0 %
05:00:00 clear sky 30.736 30.736 30.736 26 7.73 m/h 0 %


Hyderabad's Tourist Spots

Museums in Hyderabad

Famous Cities (60)